x

Halibut Bank (46146) Wave Buoy

7:00am - Sat 1st Oct 2016 All times are PDT. -7 hours from GMT.

  • Sig Wave height 1.3ft
  • Peak Period 5s
  • Wind
    18mph, 22mph gusts
  • Sea Temp 57°f
  • 空気 Temp 55°f
  • Sea Pressure 1012.4mb
  • Halibut Bank
  • Halibut Bank

More Historic Weather Station data

Upgrade to MSW Pro to gain access to the past 30 days of data for over 8000 Wavebouys and Weather Stations around the globe.

Join Pro

Comparision Forecast

View Surf forecast
   
Sat 10/01 7:00am 1.3ft 5s 18 22 mph 1012.4mb 57f 55f
6:00am 1ft 3s 13 16 mph 1012.5mb 57f 55f
5:00am 1.3ft 3s 16 18 mph 1012.6mb 57f 54f
4:00am 2ft 3s 18
mph
1012.7mb 57f 55f
3:00am 1.3ft 3s 18 20 mph 1012.8mb 57f 55f
2:00am 1ft 3s 13 16 mph 1013.8mb 57f 55f
1:00am 1ft 3s 16 18 mph 1013.6mb 57f 55f
12:00am 0.7ft 3s 20 25 mph 1013.1mb 58f 55f
Fri 09/30 11:00pm 0.3ft 5s 11 13 mph 1013.7mb 58f 55f
10:00pm 0.3ft 6s 7 9 mph 1013.6mb 58f 55f
9:00pm 0.3ft 5s 4
mph
1013.6mb 58f 56f
8:00pm 0.3ft 3s 4
mph
1013.5mb 58f 55f
7:00pm 0.3ft 5s 2 4 mph 1013.7mb 58f 55f
6:00pm 0.3ft 6s  -  mph 1013.9mb 58f 56f
5:00pm 0.3ft 6s  -  mph 1014.3mb 59f 58f
4:00pm 0.3ft 3s  -  mph 1014.7mb 59f 60f
3:00pm 0.3ft 3s 2
mph
1015.3mb 58f 54f
2:00pm 0.3ft 2s  -  2 mph 1015.9mb 58f 54f
1:00pm 0.3ft 4s 4
mph
1016.8mb 57f 52f
12:00pm 0.3ft 2s 4 7 mph 1017.3mb 56f 52f
11:00am 0.3ft 2s 7
mph
1017.6mb 56f 52f
10:00am 0.3ft 4s 11 13 mph 1017.7mb 56f 53f
9:00am 0.3ft 3s 4 7 mph 1017.7mb 56f 53f
8:00am 0.3ft 6s 2 4 mph 1017.6mb 57f 52f
7:00am 0.3ft 2s 4
mph
1017.7mb 57f 51f
6:00am 0.3ft 2s 2
mph
1017.5mb 56f 52f
5:00am 0.3ft 2s 7
mph
1017.4mb 56f 53f
4:00am 0.3ft 2s 7 9 mph 1017.7mb 55f 53f
3:00am 0.3ft 2s 7
mph
1017.7mb 55f 53f
2:00am 0.3ft 2s 7
mph
1017.5mb 55f 53f
1:00am 0.3ft 3s 7 9 mph 1017.6mb 54f 53f
12:00am 0.3ft 6s 4 7 mph 1017.7mb 55f 54f
Thu 09/29 11:00pm 0.3ft 6s 4
mph
1017.7mb 55f 54f
10:00pm 0.3ft 6s 4
mph
1017.7mb 55f 55f
9:00pm 0.3ft 4s  -  2 mph 1017.6mb 55f 55f
8:00pm 0.7ft 2s 4 7 mph 1017.3mb 54f 56f
7:00pm 0.7ft 3s 9
mph
1017.2mb 53f 56f
6:00pm 1ft 3s 11 13 mph 1017.1mb 53f 56f
5:00pm 1.3ft 3s 11
mph
1017.2mb 53f 55f
4:00pm 1.3ft 3s 13 16 mph 1017.5mb 53f 55f
3:00pm 1.3ft 3s 13 16 mph 1017.6mb 53f 55f
2:00pm 1ft 3s 13 16 mph 1018.1mb 53f 54f
1:00pm 1ft 3s 13 16 mph 1018.6mb 53f 53f
12:00pm 1ft 3s 11 13 mph 1019mb 53f 53f
11:00am 1ft 3s 11 13 mph 1019.1mb 53f 53f
10:00am 1.3ft 3s 11 13 mph 1019.1mb 53f 52f
9:00am 1.3ft 3s 11 13 mph 1018.9mb 53f 52f
8:00am 1.3ft 3s 11 13 mph 1018.6mb 53f 52f
7:00am 1.3ft 3s 13 16 mph 1018.1mb 54f 53f
6:00am 1.3ft 3s 13 18 mph 1017.9mb 54f 53f
5:00am 1.3ft 3s 13 16 mph 1017.7mb 55f 54f
4:00am 1.3ft 3s 13 16 mph 1017.9mb 55f 54f
3:00am 1.3ft 3s 11 16 mph 1018mb 55f 54f
2:00am 1.3ft 3s 16 18 mph 1017.8mb 55f 55f
1:00am 1ft 3s 13 16 mph 1017.8mb 55f 55f
12:00am 1ft 3s 11 13 mph 1017.8mb 56f 56f
Wed 09/28 11:00pm 1ft 2s 13
mph
1017.8mb 55f 56f
10:00pm 1ft 2s 11 13 mph 1017.6mb 55f 56f
9:00pm 0.7ft 3s 9 11 mph 1017.3mb 55f 56f
8:00pm 1ft 3s 11 13 mph 1017mb 55f 56f
7:00pm 1.3ft 3s 11 13 mph 1016.9mb 55f 56f
6:00pm 1.3ft 3s 13 16 mph 1017mb 55f 57f
5:00pm 1.3ft 3s 11 13 mph 1017.4mb 56f 57f
4:00pm 1.3ft 3s 13 16 mph 1017.9mb 56f 56f
3:00pm 2ft 4s 13 18 mph 1018.5mb 56f 55f
2:00pm 2ft 4s 18 20 mph 1019mb 56f 55f
11:00am 2ft 4s 13 16 mph 1021mb 55f 53f
10:00am 2ft 4s 16 18 mph 1021.1mb 54f 53f
9:00am 2ft 4s 18 20 mph 1020.9mb 54f 53f
8:00am 2.5ft 4s 18 22 mph 1020.7mb 54f 53f
7:00am 2.5ft 4s 20 22 mph 1020.5mb 55f 53f
6:00am 2.5ft 4s 18 22 mph 1020.6mb 55f 53f
5:00am 2.5ft 4s 18 20 mph 1020.4mb 55f 54f
4:00am 2.5ft 4s 18 20 mph 1020.5mb 55f 54f
3:00am 2.5ft 4s 20 25 mph 1020.9mb 56f 55f
2:00am 2.5ft 4s 20 25 mph 1020.8mb 57f 55f
1:00am 2.5ft 4s 22 27 mph 1020.8mb 57f 56f
12:00am 2.5ft 3s 25 29 mph 1020.9mb 57f 57f
Tue 09/27 11:00pm 2ft 3s 22 27 mph 1021mb 57f 57f
10:00pm 2ft 3s 20 25 mph 1021.3mb 57f 58f
9:00pm 2ft 3s 20 25 mph 1021.4mb 57f 58f
8:00pm 1.6ft 3s 18 22 mph 1021.2mb 57f 59f
7:00pm 1.6ft 4s 18
mph
1021.2mb 57f 58f
6:00pm 2ft 4s 16 18 mph 1021.5mb 57f 58f
5:00pm 2.5ft 4s 18 20 mph 1021.7mb 57f 58f
4:00pm 2.5ft 4s 16 20 mph 1022.2mb 57f 58f